Terminal Aerodrome Forecast
Issued by NWS Duluth, MN

Home | Current Version | Previous Version | Text Only | Print | Product List | Glossary On
Versions: 1 2 3 4 5 6 7 8 9 10 11 12 13 14 15 16 17 18 19 20 21 22 23 24 25
000
FTUS43 KDLH 162300
TAFINL
TAF
KINL 162329Z 1700/1724 00000KT P6SM OVC080
     FM171000 VRB02KT P6SM SCT015 BKN035
     FM171400 03005KT P6SM BKN050
     FM171900 03007KT P6SM SCT060=

USA.gov is the U.S. government's official web portal to all federal, state and local government web resources and services.